首页
METAR-TAF:

METAR-TAF

机场 :

新德里, 印度

英迪拉·甘地国际机场

纬度: 28-34N, 经度: 077-07E, 海拔: 220米

当前天气观测

该预报发布于21分钟前的05:30 UTC
风速6节,风向西北
温度 23°C
湿度 53%
气压 1018 hPa
能見度: 1800
少量云层高于10000英尺

METAR: VIDP 250530Z 32006KT 1800 R28/2000 R29/2000 FU FEW100 23/13 Q1018 NOSIG

时间: 11:21 (05:51 UTC)

预报

该预报发布于51分钟前的05:00 UTC
预报有效从25日的 06点(UTC)到 26日的 12点(UTC)
风速8节,风向西北
能見度: 2200
少量云层高于10000英尺
成为
从 25日的 08点(UTC)到 25日的 10点(UTC)
能見度: 4000
成为
从 25日的 15点(UTC)到 25日的 17点(UTC)
能見度: 3000
成为
从 26日的 00点(UTC)到 26日的 02点(UTC)
风速4节,风向西转西南
能見度: 1500
轻雾
成为
从 26日的 05点(UTC)到 26日的 07点(UTC)
风速8节,风向西北,有时为18节阵风
能見度: 4000

TAF: VIDP 250500Z 2506/2612 31008KT 2200 HZ FEW100 BECMG 2508/2510 4000 HZ BECMG 2515/2517 3000 HZ NSC BECMG 2600/2602 25004KT 1500 BR BECMG 2605/2607 31008G18KT 4000 HZ

超过4000个机场的气象观测和天气预报(METAR&TAF报告)。

可查询的气象台以黄色和红色小点在地图上表示。

将鼠标移到小点上方,可查看气象台名称。

然后点击查看天气观测和预报。

如需切换地图:点击带黑十字的绿色按钮放大地图;点击带横线的绿色按钮缩小地图;或者点击绿色箭头查看邻近地区的地图。


METAR-TAF: